createdAt,value
2023-04-15T00:02:18.751Z,21.50
2023-04-15T00:04:48.005Z,20.20
2023-04-15T00:07:16.412Z,20.50
2023-04-15T00:09:44.769Z,18.30
2023-04-15T00:12:13.299Z,18.40
2023-04-15T00:14:41.085Z,17.30
2023-04-15T00:17:09.178Z,16.30
2023-04-15T00:19:37.768Z,16.70
2023-04-15T00:22:06.207Z,15.00
2023-04-15T00:24:34.191Z,15.00
2023-04-15T00:27:02.025Z,14.90
2023-04-15T00:29:30.623Z,13.70
2023-04-15T00:31:58.586Z,12.00
2023-04-15T00:34:27.832Z,11.50
2023-04-15T00:36:55.621Z,11.20
2023-04-15T00:39:23.647Z,10.60
2023-04-15T00:41:51.928Z,10.90
2023-04-15T00:44:20.049Z,10.80
2023-04-15T00:46:48.724Z,9.80
2023-04-15T00:49:18.368Z,8.20
2023-04-15T00:51:46.228Z,8.90
2023-04-15T00:54:14.212Z,9.10
2023-04-15T00:56:42.681Z,8.60
2023-04-15T00:59:10.959Z,9.10
2023-04-15T01:01:38.867Z,9.70
2023-04-15T01:04:07.184Z,7.70
2023-04-15T01:06:35.275Z,8.50
2023-04-15T01:09:03.448Z,8.80
2023-04-15T01:11:34.312Z,8.60
2023-04-15T01:14:02.903Z,8.00
2023-04-15T01:16:31.591Z,9.30
2023-04-15T01:19:00.406Z,8.60
2023-04-15T01:21:29.924Z,8.80
2023-04-15T01:23:58.385Z,8.70
2023-04-15T01:26:26.204Z,9.00
2023-04-15T01:28:53.996Z,9.30
2023-04-15T01:31:23.062Z,8.00
2023-04-15T01:33:51.258Z,9.90
2023-04-15T01:36:19.002Z,8.70
2023-04-15T01:38:47.681Z,8.90
2023-04-15T01:41:15.562Z,8.60
2023-04-15T01:43:43.294Z,7.30
2023-04-15T01:46:11.226Z,8.40
2023-04-15T01:48:39.070Z,8.60
2023-04-15T01:51:06.803Z,9.30
2023-04-15T01:53:34.652Z,8.20
2023-04-15T01:56:03.471Z,9.10
2023-04-15T01:58:31.561Z,8.90
2023-04-15T02:00:59.325Z,8.70
2023-04-15T02:03:29.684Z,9.10
2023-04-15T02:05:57.719Z,8.40
2023-04-15T02:08:25.594Z,9.00
2023-04-15T02:10:53.465Z,9.50
2023-04-15T02:13:21.255Z,8.50
2023-04-15T02:15:50.912Z,7.90
2023-04-15T02:18:20.469Z,7.90
2023-04-15T02:20:48.887Z,8.40
2023-04-15T02:23:16.836Z,8.10
2023-04-15T02:25:53.831Z,10.10
2023-04-15T02:28:22.237Z,9.30
2023-04-15T02:30:54.404Z,8.70
2023-04-15T02:35:49.816Z,9.40
2023-04-15T02:38:18.090Z,8.60
2023-04-15T02:40:46.500Z,9.20
2023-04-15T02:43:14.204Z,9.10
2023-04-15T02:45:43.523Z,10.50
2023-04-15T02:48:11.535Z,9.10
2023-04-15T02:50:40.710Z,10.10
2023-04-15T02:53:09.186Z,8.80
2023-04-15T02:55:37.016Z,9.90
2023-04-15T02:58:04.845Z,8.90
2023-04-15T03:00:32.698Z,9.60
2023-04-15T03:03:03.620Z,9.90
2023-04-15T03:05:31.647Z,10.00
2023-04-15T03:08:01.230Z,9.10
2023-04-15T03:10:29.229Z,8.30
2023-04-15T03:12:56.978Z,11.10
2023-04-15T03:15:24.915Z,11.30
2023-04-15T03:17:54.033Z,10.50
2023-04-15T03:20:21.902Z,11.00
2023-04-15T03:22:49.704Z,9.80
2023-04-15T03:25:17.557Z,10.30
2023-04-15T03:27:45.271Z,10.30
2023-04-15T03:30:13.709Z,10.90
2023-04-15T03:32:41.765Z,11.20
2023-04-15T03:35:09.845Z,10.60
2023-04-15T03:37:37.904Z,11.20
2023-04-15T03:40:06.290Z,14.80
2023-04-15T03:42:34.040Z,15.70
2023-04-15T03:45:01.761Z,16.80
2023-04-15T03:47:29.575Z,17.10
2023-04-15T03:49:57.303Z,16.90
2023-04-15T03:52:25.045Z,14.80
2023-04-15T03:54:52.976Z,14.70
2023-04-15T03:57:21.109Z,15.60
2023-04-15T03:59:48.905Z,12.90
2023-04-15T04:02:16.810Z,14.10
2023-04-15T04:04:44.773Z,14.90
2023-04-15T04:07:18.658Z,13.70
2023-04-15T04:09:47.408Z,13.20
2023-04-15T04:12:15.595Z,13.30
2023-04-15T04:14:43.410Z,13.80
2023-04-15T04:17:11.700Z,13.20
2023-04-15T04:19:39.562Z,15.00
2023-04-15T04:22:07.407Z,14.30
2023-04-15T04:24:35.309Z,14.00
2023-04-15T04:27:03.128Z,12.40
2023-04-15T04:29:30.972Z,11.90
2023-04-15T04:31:58.720Z,12.60
2023-04-15T04:34:26.654Z,10.60
2023-04-15T04:36:54.489Z,12.10
2023-04-15T04:39:22.184Z,11.80
2023-04-15T04:41:52.177Z,12.30
2023-04-15T04:44:20.025Z,11.00
2023-04-15T04:46:47.781Z,12.50
2023-04-15T04:49:15.538Z,12.40
2023-04-15T04:51:43.316Z,11.90
2023-04-15T04:54:11.840Z,10.60
2023-04-15T04:56:39.851Z,9.90
2023-04-15T04:59:07.767Z,10.30
2023-04-15T05:01:35.694Z,9.30
2023-04-15T05:04:05.465Z,10.10
2023-04-15T05:06:33.778Z,9.00
2023-04-15T05:09:01.893Z,8.20
2023-04-15T05:11:29.891Z,7.70
2023-04-15T05:13:58.187Z,7.10
2023-04-15T05:16:26.050Z,7.10
2023-04-15T05:18:54.141Z,7.20
2023-04-15T05:21:21.978Z,7.40
2023-04-15T05:23:49.806Z,6.90
2023-04-15T05:26:17.783Z,6.50
2023-04-15T05:28:46.155Z,7.10
2023-04-15T05:31:14.150Z,5.30
2023-04-15T05:33:42.279Z,5.50
2023-04-15T05:36:10.056Z,4.00
2023-04-15T05:38:37.856Z,4.00
2023-04-15T05:41:05.669Z,3.40
2023-04-15T05:43:33.382Z,3.00
2023-04-15T05:46:01.312Z,3.50
2023-04-15T05:48:29.231Z,3.30
2023-04-15T05:50:57.199Z,3.30
2023-04-15T05:53:24.975Z,2.50
2023-04-15T05:55:52.764Z,2.30
2023-04-15T05:58:20.717Z,2.30
2023-04-15T06:00:48.434Z,2.00
2023-04-15T06:03:16.894Z,2.80
2023-04-15T06:05:45.055Z,2.90
2023-04-15T06:08:16.224Z,3.70
2023-04-15T06:10:44.543Z,6.90
2023-04-15T06:13:13.068Z,7.50
2023-04-15T06:15:41.204Z,4.70
2023-04-15T06:18:08.979Z,3.60
2023-04-15T06:20:36.820Z,3.70
2023-04-15T06:23:04.728Z,4.20
2023-04-15T06:25:32.475Z,2.10
2023-04-15T06:28:00.466Z,3.00
2023-04-15T06:30:28.173Z,1.10
2023-04-15T06:32:56.233Z,2.00
2023-04-15T06:35:24.357Z,2.10
2023-04-15T06:37:52.809Z,1.50
2023-04-15T06:40:20.535Z,0.90
2023-04-15T06:42:48.329Z,1.10
2023-04-15T06:45:17.513Z,0.90
2023-04-15T06:47:45.533Z,0.90
2023-04-15T06:50:13.505Z,0.80
2023-04-15T06:52:41.619Z,0.70
2023-04-15T06:55:10.163Z,1.20
2023-04-15T06:57:38.002Z,0.80
2023-04-15T07:00:06.510Z,0.70
2023-04-15T07:02:34.565Z,0.70
2023-04-15T07:05:02.796Z,0.90
2023-04-15T07:07:30.635Z,0.70
2023-04-15T07:09:58.493Z,0.80
2023-04-15T07:12:26.357Z,0.40
2023-04-15T07:14:54.223Z,0.30
2023-04-15T07:17:22.334Z,0.60
2023-04-15T07:19:50.620Z,0.60
2023-04-15T07:22:18.486Z,0.40
2023-04-15T07:24:46.783Z,0.30
2023-04-15T07:27:14.610Z,0.40
2023-04-15T07:29:42.651Z,0.60
2023-04-15T07:32:10.862Z,0.40
2023-04-15T07:34:38.714Z,0.60
2023-04-15T07:37:06.622Z,0.80
2023-04-15T07:39:34.418Z,0.60
2023-04-15T07:42:02.351Z,0.70
2023-04-15T07:44:30.521Z,0.60
2023-04-15T07:46:58.487Z,0.70
2023-04-15T07:49:26.460Z,0.70
2023-04-15T07:51:54.915Z,0.60
2023-04-15T07:54:22.664Z,0.60
2023-04-15T07:56:50.550Z,0.70
2023-04-15T07:59:18.768Z,0.70
2023-04-15T13:02:37.203Z,0.60
2023-04-15T13:05:06.568Z,1.50
2023-04-15T13:07:34.319Z,1.80
2023-04-15T13:10:02.308Z,0.60
2023-04-15T13:12:31.181Z,1.00
2023-04-15T13:14:58.926Z,0.60
2023-04-15T13:17:26.958Z,0.40
2023-04-15T13:19:54.973Z,0.50
2023-04-15T13:22:22.929Z,0.50
2023-04-15T13:24:51.850Z,0.50
2023-04-15T13:27:19.685Z,0.40
2023-04-15T13:29:47.709Z,0.40
2023-04-15T13:32:15.448Z,0.40
2023-04-15T13:34:43.318Z,0.40
2023-04-15T13:37:11.291Z,0.70
2023-04-15T13:39:39.401Z,0.70
2023-04-15T13:42:07.303Z,0.50
2023-04-15T13:44:35.644Z,0.90
2023-04-15T13:47:03.850Z,0.90
2023-04-15T13:49:31.620Z,0.90
2023-04-15T13:51:59.313Z,0.90
2023-04-15T13:54:37.028Z,0.60
2023-04-15T13:57:06.718Z,0.50
2023-04-15T13:59:34.991Z,0.80
2023-04-15T14:02:02.902Z,0.50
2023-04-15T14:04:32.026Z,0.40
2023-04-15T14:06:59.849Z,0.70
2023-04-15T14:09:28.157Z,0.50
2023-04-15T14:11:56.514Z,0.60
2023-04-15T14:14:24.325Z,0.50
2023-04-15T14:16:52.093Z,0.60
2023-04-15T14:19:19.976Z,0.40
2023-04-15T14:21:48.193Z,0.50
2023-04-15T14:24:16.020Z,0.70
2023-04-15T14:26:44.699Z,1.80
2023-04-15T14:29:12.526Z,0.80
2023-04-15T14:31:41.206Z,0.60
2023-04-15T14:34:11.398Z,0.60
2023-04-15T14:36:40.368Z,1.20
2023-04-15T14:39:08.868Z,0.80
2023-04-15T14:41:37.661Z,0.90
2023-04-15T14:44:05.745Z,0.70
2023-04-15T14:46:33.643Z,0.80
2023-04-15T14:49:01.517Z,0.60
2023-04-15T14:51:29.259Z,0.60
2023-04-15T14:53:56.973Z,0.70
2023-04-15T14:56:24.845Z,0.70
2023-04-15T14:58:54.150Z,0.60
2023-04-15T15:01:22.095Z,0.70
2023-04-15T15:03:50.169Z,0.50
2023-04-15T15:06:18.081Z,0.70
2023-04-15T15:08:46.104Z,0.60
2023-04-15T15:11:13.939Z,0.80
2023-04-15T15:13:41.865Z,0.80
2023-04-15T15:16:10.617Z,0.90
2023-04-15T15:18:39.257Z,0.70
2023-04-15T15:21:07.046Z,0.80
2023-04-15T15:23:34.880Z,0.60
2023-04-15T15:26:02.758Z,0.70
2023-04-15T15:28:30.842Z,0.80
2023-04-15T15:30:58.544Z,0.60
2023-04-15T15:33:27.661Z,0.70
2023-04-15T15:35:58.707Z,1.30
2023-04-15T15:38:26.662Z,1.20
2023-04-15T15:40:54.371Z,1.30
2023-04-15T15:43:22.100Z,1.10
2023-04-15T15:45:52.262Z,1.10
2023-04-15T15:48:20.079Z,0.60
2023-04-15T15:50:47.872Z,0.80
2023-04-15T15:53:20.980Z,0.90
2023-04-15T15:55:48.813Z,0.60
2023-04-15T15:58:16.674Z,0.60
2023-04-15T16:00:44.430Z,0.50
2023-04-15T16:03:12.395Z,0.70
2023-04-15T16:05:40.375Z,0.80
2023-04-15T16:08:08.982Z,0.80
2023-04-15T16:10:38.267Z,0.70
2023-04-15T16:13:06.496Z,0.60
2023-04-15T16:15:34.600Z,0.70
2023-04-15T16:18:02.817Z,0.80
2023-04-15T16:20:31.331Z,0.70
2023-04-15T16:22:59.565Z,0.70
2023-04-15T16:25:27.829Z,0.60
2023-04-15T16:28:05.499Z,0.60
2023-04-15T16:30:40.816Z,0.50
2023-04-15T16:33:09.698Z,0.80
2023-04-15T16:35:37.801Z,0.60
2023-04-15T16:38:06.609Z,0.60
2023-04-15T16:40:35.107Z,0.50
2023-04-15T16:43:03.579Z,0.80
2023-04-15T16:45:31.643Z,0.80
2023-04-15T16:47:59.772Z,0.80
2023-04-15T16:50:28.206Z,1.00
2023-04-15T16:52:56.238Z,1.90
2023-04-15T16:55:24.509Z,6.70
2023-04-15T16:58:03.267Z,9.00
2023-04-15T17:00:33.275Z,6.90
2023-04-15T17:03:02.153Z,6.40
2023-04-15T17:05:31.167Z,2.90
2023-04-15T17:07:59.758Z,2.20
2023-04-15T17:10:28.038Z,0.90
2023-04-15T17:12:57.192Z,1.20
2023-04-15T17:15:26.010Z,0.80
2023-04-15T17:17:54.388Z,0.60
2023-04-15T17:20:22.478Z,1.10
2023-04-15T17:22:50.345Z,1.00
2023-04-15T17:25:19.397Z,1.20
2023-04-15T17:27:47.156Z,1.20
2023-04-15T17:30:14.885Z,1.60
2023-04-15T17:32:42.835Z,1.30
2023-04-15T17:35:10.758Z,1.30
2023-04-15T17:37:39.110Z,1.50
2023-04-15T17:40:08.746Z,1.40
2023-04-15T17:42:36.864Z,1.50
2023-04-15T17:45:05.737Z,1.70
2023-04-15T17:47:33.943Z,2.40
2023-04-15T17:50:02.307Z,2.40
2023-04-15T17:52:30.435Z,2.30
2023-04-15T17:54:58.565Z,2.00
2023-04-15T17:57:26.342Z,2.00
2023-04-15T17:59:54.505Z,2.20
2023-04-15T18:02:22.778Z,2.20
2023-04-15T18:04:51.067Z,2.70
2023-04-15T18:07:19.296Z,2.40
2023-04-15T18:09:47.476Z,2.70
2023-04-15T18:12:15.550Z,3.50
2023-04-15T18:14:43.718Z,3.60
2023-04-15T18:17:13.493Z,3.70
2023-04-15T18:19:41.940Z,4.20
2023-04-15T18:22:09.920Z,3.70
2023-04-15T18:24:37.933Z,4.10
2023-04-15T18:27:05.839Z,3.80
2023-04-15T18:29:34.981Z,3.80
2023-04-15T18:32:03.533Z,4.00
2023-04-15T18:34:31.401Z,4.20
2023-04-15T18:36:59.551Z,4.50
2023-04-15T18:39:27.747Z,4.00
2023-04-15T18:41:56.353Z,4.80
2023-04-15T18:44:24.383Z,4.60
2023-04-15T18:46:52.646Z,4.90
2023-04-15T18:49:22.493Z,5.20
2023-04-15T18:51:51.379Z,5.40
2023-04-15T18:54:19.123Z,5.90
2023-04-15T18:56:47.101Z,6.00
2023-04-15T18:59:29.782Z,5.90
2023-04-15T19:01:59.627Z,5.80
2023-04-15T19:04:31.020Z,6.80
2023-04-15T19:06:59.335Z,6.70
2023-04-15T19:09:28.748Z,8.30
2023-04-15T19:11:57.596Z,8.00
2023-04-15T19:14:25.795Z,7.10
2023-04-15T19:16:54.787Z,7.50
2023-04-15T19:19:22.607Z,7.60
2023-04-15T19:21:51.127Z,7.10
2023-04-15T19:24:20.087Z,7.00
2023-04-15T19:26:50.287Z,7.70
2023-04-15T19:29:18.619Z,8.30
2023-04-15T19:31:46.425Z,8.60
2023-04-15T19:34:14.735Z,8.30
2023-04-15T19:36:42.960Z,14.70
2023-04-15T19:39:11.450Z,11.00
2023-04-15T19:41:39.441Z,9.30
2023-04-15T19:44:07.306Z,8.90
2023-04-15T19:46:35.983Z,9.00
2023-04-15T19:49:04.363Z,8.90
2023-04-15T19:51:32.586Z,8.90
2023-04-15T19:54:00.615Z,8.60
2023-04-15T19:56:29.268Z,9.00
2023-04-15T19:58:57.153Z,8.60
2023-04-15T20:01:25.485Z,8.90
2023-04-15T20:03:54.591Z,8.90
2023-04-15T20:06:22.713Z,9.40
2023-04-15T20:08:50.813Z,8.40
2023-04-15T20:11:19.006Z,8.10
2023-04-15T20:13:46.884Z,8.90
2023-04-15T20:16:14.832Z,8.80
2023-04-15T20:18:42.695Z,10.00
2023-04-15T20:21:10.441Z,9.80
2023-04-15T20:23:38.737Z,9.80
2023-04-15T20:26:06.996Z,11.50
2023-04-15T20:28:34.870Z,10.70
2023-04-15T20:31:02.786Z,9.40
2023-04-15T20:33:30.857Z,10.20
2023-04-15T20:35:59.773Z,9.70
2023-04-15T20:38:27.683Z,10.00
2023-04-15T20:40:55.821Z,9.30
2023-04-15T20:43:24.294Z,9.40
2023-04-15T20:45:54.195Z,10.10
2023-04-15T20:48:23.093Z,9.40
2023-04-15T20:50:51.470Z,10.00
2023-04-15T20:53:19.635Z,9.30
2023-04-15T20:55:47.799Z,10.00
2023-04-15T20:58:15.884Z,10.50
2023-04-15T21:00:45.424Z,11.00
2023-04-15T21:03:13.528Z,12.60
2023-04-15T21:05:41.688Z,12.20
2023-04-15T21:08:09.889Z,12.10
2023-04-15T21:10:37.564Z,13.20
2023-04-15T21:13:06.728Z,14.30
2023-04-15T21:15:34.842Z,14.30
2023-04-15T21:18:02.637Z,13.90
2023-04-15T21:20:30.373Z,14.40
2023-04-15T21:22:58.117Z,15.20
2023-04-15T21:25:26.171Z,15.90
2023-04-15T21:27:54.114Z,15.10
2023-04-15T21:30:23.786Z,14.20
2023-04-15T21:32:51.612Z,15.00
2023-04-15T21:35:19.787Z,14.40
2023-04-15T21:37:47.899Z,14.50
2023-04-15T21:40:16.312Z,13.70
2023-04-15T21:42:44.209Z,14.00
2023-04-15T21:45:12.062Z,13.60
2023-04-15T21:48:05.879Z,13.40
2023-04-15T21:50:27.837Z,13.90
2023-04-15T21:52:56.120Z,13.80
2023-04-15T21:55:23.941Z,13.30
2023-04-15T21:57:52.035Z,12.60
2023-04-15T22:00:20.156Z,13.50
2023-04-15T22:02:48.125Z,13.90
2023-04-15T22:05:16.788Z,12.40
2023-04-15T22:07:44.579Z,12.40
2023-04-15T22:10:12.551Z,12.30
2023-04-15T22:12:41.979Z,13.10
2023-04-15T22:15:09.999Z,12.80
2023-04-15T22:17:37.933Z,12.60
2023-04-15T22:20:06.631Z,13.10
2023-04-15T22:22:44.225Z,12.70
2023-04-15T22:25:12.793Z,13.60
2023-04-15T22:27:40.843Z,13.40
2023-04-15T22:30:09.643Z,13.10
2023-04-15T22:32:37.770Z,13.30
2023-04-15T22:35:06.684Z,13.10
2023-04-15T22:37:34.527Z,13.30
2023-04-15T22:40:02.746Z,13.10
2023-04-15T22:42:30.908Z,11.80
2023-04-15T22:44:58.636Z,13.00
2023-04-15T22:47:27.086Z,12.40
2023-04-15T22:49:57.276Z,13.60
2023-04-15T22:52:30.670Z,13.90
2023-04-15T22:54:59.632Z,14.00
2023-04-15T22:57:28.522Z,14.60
2023-04-15T22:59:56.402Z,15.40
2023-04-15T23:02:24.546Z,14.70
2023-04-15T23:04:52.578Z,13.50
2023-04-15T23:07:20.412Z,13.60
2023-04-15T23:09:48.139Z,14.00
2023-04-15T23:12:16.017Z,14.30
2023-04-15T23:14:43.866Z,13.80
2023-04-15T23:17:11.650Z,14.50
2023-04-15T23:19:39.480Z,15.10
2023-04-15T23:22:10.521Z,13.20
2023-04-15T23:24:38.532Z,13.20
2023-04-15T23:27:06.270Z,15.20
2023-04-15T23:29:34.395Z,14.30
2023-04-15T23:32:02.284Z,15.10
2023-04-15T23:34:30.075Z,15.40
2023-04-15T23:36:57.837Z,16.50
2023-04-15T23:39:25.764Z,16.90
2023-04-15T23:41:53.550Z,15.70
2023-04-15T23:44:22.370Z,14.20
2023-04-15T23:46:51.363Z,15.30
2023-04-15T23:49:20.328Z,14.10
2023-04-15T23:51:48.752Z,14.20
2023-04-15T23:54:16.540Z,14.40
2023-04-15T23:56:44.342Z,14.90
2023-04-15T23:59:12.173Z,14.30
